createdAt,value
2023-03-19T00:03:59.011Z,7.29
2023-03-19T00:08:01.897Z,7.27
2023-03-19T00:12:05.446Z,7.53
2023-03-19T00:16:09.191Z,7.01
2023-03-19T00:20:20.680Z,7.01
2023-03-19T00:24:24.970Z,7.31
2023-03-19T00:28:28.133Z,6.91
2023-03-19T00:32:33.589Z,6.82
2023-03-19T00:36:38.613Z,6.55
2023-03-19T00:40:41.491Z,6.64
2023-03-19T00:44:44.557Z,6.44
2023-03-19T00:48:47.463Z,6.32
2023-03-19T00:52:52.222Z,5.79
2023-03-19T00:56:54.994Z,5.95
2023-03-19T01:01:01.052Z,5.46
2023-03-19T01:05:04.157Z,5.35
2023-03-19T01:09:08.788Z,5.99
2023-03-19T01:13:12.448Z,6.08
2023-03-19T01:17:15.397Z,5.73
2023-03-19T01:21:18.866Z,5.56
2023-03-19T01:25:24.100Z,5.76
2023-03-19T01:29:27.265Z,5.53
2023-03-19T01:33:39.621Z,5.16
2023-03-19T01:37:42.804Z,5.41
2023-03-19T01:41:47.968Z,5.42
2023-03-19T01:45:51.926Z,4.80
2023-03-19T01:49:57.251Z,4.76
2023-03-19T01:54:01.923Z,4.44
2023-03-19T01:58:07.818Z,4.79
2023-03-19T02:02:22.121Z,4.78
2023-03-19T02:06:27.327Z,4.55
2023-03-19T02:10:31.145Z,4.54
2023-03-19T02:14:37.208Z,4.43
2023-03-19T02:18:40.441Z,4.54
2023-03-19T02:22:48.713Z,4.55
2023-03-19T02:26:53.446Z,4.25
2023-03-19T02:30:56.888Z,4.06
2023-03-19T02:35:00.664Z,4.46
2023-03-19T02:39:05.891Z,4.77
2023-03-19T02:43:14.834Z,3.58
2023-03-19T02:47:18.174Z,3.60
2023-03-19T02:51:21.010Z,3.83
2023-03-19T02:55:24.079Z,3.97
2023-03-19T02:59:28.624Z,4.02
2023-03-19T03:03:33.508Z,3.49
2023-03-19T03:07:36.363Z,3.19
2023-03-19T03:11:41.241Z,3.67
2023-03-19T03:15:49.686Z,4.15
2023-03-19T03:19:52.462Z,3.61
2023-03-19T03:23:55.181Z,3.67
2023-03-19T03:27:58.357Z,3.45
2023-03-19T03:32:02.626Z,3.18
2023-03-19T03:36:07.157Z,3.27
2023-03-19T03:40:11.494Z,3.69
2023-03-19T03:44:14.447Z,3.82
2023-03-19T03:48:19.311Z,3.92
2023-03-19T03:52:22.735Z,3.95
2023-03-19T03:56:26.186Z,4.16
2023-03-19T04:00:32.477Z,3.86
2023-03-19T04:04:37.294Z,3.87
2023-03-19T04:08:40.202Z,4.20
2023-03-19T04:12:43.479Z,4.24
2023-03-19T04:16:47.612Z,4.15
2023-03-19T04:20:52.837Z,4.31
2023-03-19T04:24:55.678Z,4.31
2023-03-19T04:29:00.042Z,4.51
2023-03-19T04:33:04.749Z,4.53
2023-03-19T04:37:11.446Z,4.67
2023-03-19T04:41:16.316Z,4.76
2023-03-19T04:45:19.186Z,4.73
2023-03-19T04:49:22.144Z,4.86
2023-03-19T04:53:26.711Z,4.74
2023-03-19T04:57:32.824Z,5.03
2023-03-19T05:01:36.608Z,4.99
2023-03-19T05:05:39.492Z,5.08
2023-03-19T05:09:44.013Z,5.10
2023-03-19T05:13:47.069Z,5.13
2023-03-19T05:17:51.242Z,5.18
2023-03-19T05:21:54.072Z,5.20
2023-03-19T05:26:00.238Z,5.16
2023-03-19T05:30:03.093Z,5.30
2023-03-19T05:34:05.939Z,5.45
2023-03-19T05:38:09.594Z,5.46
2023-03-19T05:42:14.889Z,5.54
2023-03-19T05:46:19.085Z,5.58
2023-03-19T05:50:22.069Z,5.56
2023-03-19T05:54:24.998Z,5.52
2023-03-19T05:58:29.615Z,5.66
2023-03-19T06:02:32.523Z,5.70
2023-03-19T06:06:36.563Z,5.80
2023-03-19T06:10:39.192Z,5.88
2023-03-19T06:14:44.497Z,5.92
2023-03-19T06:18:49.760Z,5.80
2023-03-19T06:22:52.883Z,5.75
2023-03-19T06:26:55.853Z,5.72
2023-03-19T06:31:00.348Z,5.89
2023-03-19T06:35:03.149Z,5.67
2023-03-19T06:39:06.056Z,5.94
2023-03-19T06:43:08.979Z,5.99
2023-03-19T06:47:15.374Z,6.06
2023-03-19T06:51:18.209Z,6.06
2023-03-19T06:55:21.104Z,5.91
2023-03-19T06:59:24.066Z,6.06
2023-03-19T07:03:28.510Z,6.14
2023-03-19T07:07:31.646Z,6.16
2023-03-19T07:11:35.917Z,6.42
2023-03-19T07:15:38.854Z,6.20
2023-03-19T07:19:43.359Z,6.32
2023-03-19T07:23:47.015Z,6.26
2023-03-19T07:27:50.152Z,6.49
2023-03-19T07:31:53.005Z,6.55
2023-03-19T07:35:57.358Z,6.57
2023-03-19T07:40:00.376Z,6.66
2023-03-19T07:44:03.329Z,6.89
2023-03-19T07:48:07.402Z,6.89
2023-03-19T07:52:13.513Z,6.99
2023-03-19T07:56:16.723Z,7.03
2023-03-19T08:00:21.448Z,7.25
2023-03-19T08:04:24.401Z,7.50
2023-03-19T08:08:28.639Z,7.63
2023-03-19T08:12:31.965Z,7.94
2023-03-19T08:16:34.868Z,7.75
2023-03-19T08:20:38.248Z,7.93
2023-03-19T08:24:44.642Z,8.02
2023-03-19T08:28:47.487Z,8.09
2023-03-19T08:32:51.413Z,8.09
2023-03-19T08:36:54.779Z,8.15
2023-03-19T08:41:02.526Z,8.16
2023-03-19T08:45:07.714Z,7.99
2023-03-19T08:49:10.862Z,8.21
2023-03-19T08:53:26.844Z,8.02
2023-03-19T08:57:38.605Z,7.97
2023-03-19T09:01:54.197Z,7.79
2023-03-19T09:06:32.428Z,7.92
2023-03-19T09:15:21.028Z,7.92
2023-03-19T09:19:48.193Z,7.95
2023-03-19T09:23:56.926Z,7.97
2023-03-19T09:28:19.736Z,8.23
2023-03-19T09:37:12.837Z,8.22
2023-03-19T09:41:34.676Z,8.30
2023-03-19T09:45:42.895Z,8.54
2023-03-19T09:50:13.435Z,8.56
2023-03-19T09:55:04.870Z,8.90
2023-03-19T09:59:17.534Z,8.99
2023-03-19T10:03:48.935Z,9.21
2023-03-19T10:08:16.754Z,9.46
2023-03-19T10:12:58.766Z,9.50
2023-03-19T10:17:13.653Z,9.43
2023-03-19T10:21:32.564Z,9.38
2023-03-19T10:25:42.861Z,8.98
2023-03-19T10:30:06.924Z,9.21
2023-03-19T10:34:35.693Z,8.97
2023-03-19T10:38:56.875Z,9.17
2023-03-19T10:43:23.897Z,9.16
2023-03-19T10:47:50.939Z,9.09
2023-03-19T10:51:57.753Z,9.35
2023-03-19T10:56:26.094Z,9.44
2023-03-19T11:00:47.703Z,9.82
2023-03-19T11:04:53.391Z,9.77
2023-03-19T11:13:27.842Z,9.69
2023-03-19T11:17:49.718Z,9.56
2023-03-19T11:22:15.046Z,9.46
2023-03-19T11:26:40.243Z,9.70
2023-03-19T11:30:52.304Z,9.79
2023-03-19T11:35:01.543Z,9.84
2023-03-19T11:39:23.211Z,9.75
2023-03-19T11:44:15.582Z,9.65
2023-03-19T11:49:08.333Z,9.62
2023-03-19T11:53:29.642Z,9.79
2023-03-19T12:03:09.983Z,9.85
2023-03-19T12:07:27.302Z,9.72
2023-03-19T12:12:00.089Z,9.86
2023-03-19T12:30:05.371Z,9.96
2023-03-19T12:34:50.087Z,9.99
2023-03-19T12:39:14.920Z,10.08
2023-03-19T12:43:34.344Z,9.90
2023-03-19T12:47:40.272Z,9.86
2023-03-19T12:51:46.774Z,9.86
2023-03-19T12:56:22.369Z,10.02
2023-03-19T13:00:50.292Z,10.10
2023-03-19T13:04:59.392Z,10.13
2023-03-19T13:09:07.145Z,10.32
2023-03-19T13:13:27.248Z,9.71
2023-03-19T13:22:12.647Z,9.78
2023-03-19T13:26:33.523Z,9.54
2023-03-19T13:31:12.654Z,9.58
2023-03-19T13:36:04.370Z,9.61
2023-03-19T13:40:31.175Z,9.53
2023-03-19T13:44:57.903Z,9.47
2023-03-19T13:49:40.616Z,9.78
2023-03-19T13:54:23.276Z,10.29
2023-03-19T13:59:23.497Z,10.86
2023-03-19T14:03:37.785Z,11.06
2023-03-19T14:08:34.217Z,10.67
2023-03-19T14:12:43.806Z,10.99
2023-03-19T14:21:54.989Z,10.54
2023-03-19T14:26:07.058Z,10.87
2023-03-19T14:30:15.038Z,10.78
2023-03-19T14:34:37.033Z,11.02
2023-03-19T14:39:05.211Z,10.57
2023-03-19T14:43:15.601Z,10.74
2023-03-19T14:47:33.300Z,11.11
2023-03-19T14:52:26.391Z,11.42
2023-03-19T14:56:45.949Z,10.95
2023-03-19T15:01:09.859Z,12.32
2023-03-19T15:05:21.819Z,11.93
2023-03-19T15:09:30.111Z,12.08
2023-03-19T15:18:47.071Z,12.00
2023-03-19T15:23:26.288Z,11.98
2023-03-19T15:32:06.622Z,11.64
2023-03-19T15:36:41.612Z,11.18
2023-03-19T15:40:46.897Z,11.60
2023-03-19T15:45:11.005Z,11.58
2023-03-19T15:54:16.241Z,11.55
2023-03-19T15:58:29.367Z,11.42
2023-03-19T16:02:46.383Z,11.25
2023-03-19T16:08:31.970Z,11.22
2023-03-19T16:12:39.794Z,11.03
2023-03-19T16:16:43.519Z,10.89
2023-03-19T16:20:46.465Z,10.79
2023-03-19T16:24:51.765Z,10.93
2023-03-19T16:29:00.907Z,10.82
2023-03-19T16:33:05.278Z,10.88
2023-03-19T16:37:34.793Z,10.46
2023-03-19T16:41:38.968Z,10.09
2023-03-19T16:45:42.531Z,10.19
2023-03-19T16:49:47.351Z,10.35
2023-03-19T16:53:50.840Z,10.33
2023-03-19T16:57:58.709Z,10.07
2023-03-19T17:02:01.521Z,10.30
2023-03-19T17:06:05.388Z,10.08
2023-03-19T17:10:09.054Z,10.16
2023-03-19T17:14:16.740Z,10.14
2023-03-19T17:18:21.633Z,10.02
2023-03-19T17:22:27.624Z,9.93
2023-03-19T17:26:30.631Z,9.71
2023-03-19T17:30:35.429Z,9.81
2023-03-19T17:34:38.624Z,9.62
2023-03-19T17:38:41.867Z,9.69
2023-03-19T17:42:44.518Z,9.68
2023-03-19T17:46:50.003Z,9.67
2023-03-19T17:50:52.858Z,9.19
2023-03-19T17:54:55.609Z,9.33
2023-03-19T17:58:58.835Z,9.04
2023-03-19T18:03:02.944Z,9.00
2023-03-19T18:07:05.708Z,9.15
2023-03-19T18:11:08.562Z,8.97
2023-03-19T18:15:12.349Z,8.56
2023-03-19T18:19:19.271Z,8.80
2023-03-19T18:23:24.009Z,8.69
2023-03-19T18:27:26.808Z,8.45
2023-03-19T18:31:30.450Z,7.84
2023-03-19T18:35:36.114Z,8.05
2023-03-19T18:39:38.835Z,7.47
2023-03-19T18:43:41.547Z,7.75
2023-03-19T18:47:45.899Z,6.84
2023-03-19T18:52:01.708Z,6.90
2023-03-19T18:56:08.117Z,6.55
2023-03-19T19:00:18.071Z,6.54
2023-03-19T19:04:20.888Z,6.53
2023-03-19T19:08:26.831Z,6.65
2023-03-19T19:12:29.578Z,6.53
2023-03-19T19:16:35.490Z,6.41
2023-03-19T19:20:38.097Z,6.25
2023-03-19T19:24:42.145Z,6.31
2023-03-19T19:28:45.022Z,6.40
2023-03-19T19:32:48.155Z,6.81
2023-03-19T19:36:52.389Z,6.41
2023-03-19T19:40:58.350Z,6.47
2023-03-19T19:45:03.176Z,6.43
2023-03-19T19:49:06.386Z,6.19
2023-03-19T19:53:09.633Z,6.42
2023-03-19T19:57:19.773Z,6.46
2023-03-19T20:01:24.360Z,6.63
2023-03-19T20:05:28.745Z,6.78
2023-03-19T20:09:32.071Z,6.76
2023-03-19T20:13:36.635Z,6.86
2023-03-19T20:17:39.452Z,6.95
2023-03-19T20:21:42.475Z,6.66
2023-03-19T20:25:46.069Z,6.50
2023-03-19T20:29:51.143Z,6.88
2023-03-19T20:33:54.290Z,6.99
2023-03-19T20:37:58.178Z,6.82
2023-03-19T20:42:00.988Z,7.03
2023-03-19T20:46:07.850Z,7.00
2023-03-19T20:50:18.379Z,7.06
2023-03-19T20:54:21.446Z,7.16
2023-03-19T20:58:27.509Z,7.15
2023-03-19T21:02:31.750Z,7.22
2023-03-19T21:06:46.293Z,7.08
2023-03-19T21:10:55.012Z,7.15
2023-03-19T21:14:57.817Z,7.24
2023-03-19T21:19:02.551Z,7.17
2023-03-19T21:23:10.796Z,6.95
2023-03-19T21:27:19.684Z,7.22
2023-03-19T21:31:22.752Z,7.20
2023-03-19T21:35:28.761Z,7.01
2023-03-19T21:39:31.854Z,7.13
2023-03-19T21:43:37.065Z,7.12
2023-03-19T21:47:40.536Z,7.20
2023-03-19T21:51:44.938Z,7.10
2023-03-19T21:55:47.750Z,7.31
2023-03-19T21:59:50.494Z,7.05
2023-03-19T22:03:53.669Z,6.93
2023-03-19T22:07:57.917Z,7.04
2023-03-19T22:12:01.394Z,7.15
2023-03-19T22:16:04.637Z,7.10
2023-03-19T22:20:07.870Z,6.96
2023-03-19T22:24:12.040Z,6.86
2023-03-19T22:28:18.308Z,6.97
2023-03-19T22:32:21.196Z,6.85
2023-03-19T22:36:23.923Z,6.87
2023-03-19T22:40:28.615Z,6.56
2023-03-19T22:44:32.376Z,6.98
2023-03-19T22:48:35.697Z,6.63
2023-03-19T22:52:38.480Z,6.70
2023-03-19T22:56:42.609Z,6.92
2023-03-19T23:00:45.864Z,6.61
2023-03-19T23:04:48.933Z,6.66
2023-03-19T23:08:51.760Z,6.61
2023-03-19T23:12:57.182Z,6.63
2023-03-19T23:17:03.115Z,6.67
2023-03-19T23:21:06.854Z,6.73
2023-03-19T23:25:14.997Z,6.86
2023-03-19T23:29:24.450Z,6.60
2023-03-19T23:33:27.705Z,6.66
2023-03-19T23:37:30.854Z,6.51
2023-03-19T23:41:33.613Z,6.80
2023-03-19T23:45:39.094Z,6.61
2023-03-19T23:49:42.193Z,6.69
2023-03-19T23:53:45.907Z,6.81
2023-03-19T23:57:48.880Z,6.83
